Terminal Aerodrome Forecast
Issued by NWS

Home | Current Version | Previous Version | Text Only | Print | Product List | Glossary On
Versions: 1 2 3 4 5 6 7 8 9 10 11 12 13 14 15 16 17 18 19 20 21 22
000
FTUS41 KBOX 201120
TAFFMH
TAF
KFMH 201120Z 2012/2112 04015G25KT 1/2SM SHRA FG OVC002
     FM201400 04017G27KT 1SM -SHRA BR OVC005
     FM202000 03019G35KT 2SM -SHRA BR OVC005
     FM202200 03019G37KT 3SM -SHRA BR OVC008 WS020/04050KT
     FM210800 01021G39KT P6SM VCSH OVC008 WS020/03050KT=

USA.gov is the U.S. government's official web portal to all federal, state and local government web resources and services.